createdAt,value
2018-07-21T00:01:08.050Z,18.00
2018-07-21T00:03:39.290Z,17.90
2018-07-21T00:06:17.666Z,17.90
2018-07-21T00:08:49.073Z,17.90
2018-07-21T00:11:17.983Z,17.90
2018-07-21T00:13:46.875Z,17.90
2018-07-21T00:16:25.217Z,17.80
2018-07-21T00:18:53.589Z,17.90
2018-07-21T00:21:25.286Z,17.80
2018-07-21T00:23:54.086Z,17.80
2018-07-21T00:26:32.718Z,17.80
2018-07-21T00:29:01.280Z,17.80
2018-07-21T00:31:29.984Z,17.80
2018-07-21T00:33:58.625Z,17.80
2018-07-21T00:36:30.274Z,17.70
2018-07-21T00:39:07.811Z,17.70
2018-07-21T00:41:42.579Z,17.70
2018-07-21T00:44:10.962Z,17.80
2018-07-21T00:46:40.280Z,17.70
2018-07-21T00:49:15.103Z,17.70
2018-07-21T00:51:49.680Z,17.70
2018-07-21T00:54:19.270Z,17.60
2018-07-21T00:56:50.916Z,17.60
2018-07-21T00:59:21.422Z,17.60
2018-07-21T01:01:53.635Z,17.60
2018-07-21T01:06:56.968Z,17.60
2018-07-21T01:09:26.704Z,17.60
2018-07-21T01:11:58.353Z,17.60
2018-07-21T01:14:30.292Z,17.60
2018-07-21T01:16:59.308Z,17.60
2018-07-21T01:19:28.073Z,17.60
2018-07-21T01:21:58.214Z,17.60
2018-07-21T01:24:27.132Z,17.50
2018-07-21T01:26:58.944Z,17.50
2018-07-21T01:29:27.936Z,17.40
2018-07-21T01:31:57.742Z,17.40
2018-07-21T01:34:26.577Z,17.40
2018-07-21T01:37:00.813Z,17.40
2018-07-21T01:39:34.340Z,17.40
2018-07-21T01:42:05.838Z,17.30
2018-07-21T01:44:35.776Z,17.30
2018-07-21T01:47:05.348Z,17.30
2018-07-21T01:49:34.610Z,17.30
2018-07-21T01:52:14.978Z,17.20
2018-07-21T01:54:49.636Z,17.20
2018-07-21T01:57:19.421Z,17.20
2018-07-21T01:59:48.094Z,17.20
2018-07-21T02:02:18.591Z,17.20
2018-07-21T02:04:47.270Z,17.20
2018-07-21T02:07:28.260Z,17.20
2018-07-21T02:09:57.969Z,17.20
2018-07-21T02:12:26.678Z,17.20
2018-07-21T02:14:55.473Z,17.20
2018-07-21T02:17:23.741Z,17.20
2018-07-21T02:19:52.113Z,17.20
2018-07-21T02:22:26.879Z,17.20
2018-07-21T02:24:56.251Z,17.20
2018-07-21T02:27:25.763Z,17.20
2018-07-21T02:29:54.612Z,17.20
2018-07-21T02:32:23.587Z,17.20
2018-07-21T02:34:57.820Z,17.20
2018-07-21T02:37:27.068Z,17.30
2018-07-21T02:39:55.961Z,17.30
2018-07-21T02:42:25.825Z,17.30
2018-07-21T02:44:54.313Z,17.30
2018-07-21T02:47:39.720Z,17.30
2018-07-21T02:50:25.167Z,17.20
2018-07-21T02:52:56.900Z,17.20
2018-07-21T02:55:31.341Z,17.30
2018-07-21T02:58:00.387Z,17.30
2018-07-21T03:00:34.501Z,17.30
2018-07-21T03:03:09.328Z,17.30
2018-07-21T03:05:38.221Z,17.30
2018-07-21T03:08:18.402Z,17.30
2018-07-21T03:11:01.033Z,17.20
2018-07-21T03:13:31.138Z,17.20
2018-07-21T03:15:59.855Z,17.20
2018-07-21T03:18:34.245Z,17.20
2018-07-21T03:21:08.665Z,17.10
2018-07-21T03:23:38.412Z,17.10
2018-07-21T03:26:09.633Z,17.10
2018-07-21T03:28:44.123Z,17.10
2018-07-21T03:31:30.977Z,17.00
2018-07-21T03:33:59.776Z,17.00
2018-07-21T03:36:28.934Z,17.10
2018-07-21T03:38:57.846Z,17.00
2018-07-21T03:41:27.560Z,17.00
2018-07-21T03:43:56.141Z,17.00
2018-07-21T03:46:25.081Z,17.00
2018-07-21T03:48:59.538Z,17.00
2018-07-21T03:51:31.027Z,16.90
2018-07-21T03:54:00.948Z,17.00
2018-07-21T03:59:22.135Z,16.90
2018-07-21T04:02:03.733Z,16.90
2018-07-21T04:07:04.083Z,16.90
2018-07-21T04:09:38.473Z,16.80
2018-07-21T04:12:12.368Z,16.80
2018-07-21T04:14:52.898Z,16.80
2018-07-21T04:17:26.506Z,16.80
2018-07-21T04:20:11.820Z,16.80
2018-07-21T04:22:48.036Z,16.90
2018-07-21T04:25:21.786Z,16.80
2018-07-21T04:33:13.740Z,16.80
2018-07-21T04:35:58.870Z,16.80
2018-07-21T04:38:28.429Z,16.90
2018-07-21T04:41:02.924Z,16.90
2018-07-21T04:43:34.534Z,17.00
2018-07-21T04:48:45.127Z,17.00
2018-07-21T04:53:42.161Z,17.10
2018-07-21T04:56:10.936Z,17.10
2018-07-21T04:58:49.345Z,17.20
2018-07-21T05:01:35.299Z,17.20
2018-07-21T05:04:09.988Z,17.20
2018-07-21T05:06:39.267Z,17.20
2018-07-21T05:09:09.894Z,17.30
2018-07-21T05:11:39.437Z,17.30
2018-07-21T05:14:15.464Z,17.40
2018-07-21T05:16:44.888Z,17.50
2018-07-21T05:19:13.696Z,17.60
2018-07-21T05:24:10.659Z,17.80
2018-07-21T05:26:39.231Z,17.80
2018-07-21T05:29:07.942Z,18.00
2018-07-21T05:31:37.864Z,18.00
2018-07-21T05:34:12.578Z,18.10
2018-07-21T05:39:15.969Z,18.30
2018-07-21T05:41:45.676Z,18.40
2018-07-21T05:44:20.301Z,18.50
2018-07-21T05:46:51.717Z,18.50
2018-07-21T05:49:23.867Z,18.60
2018-07-21T05:51:58.289Z,18.70
2018-07-21T05:54:26.623Z,18.80
2018-07-21T05:57:01.041Z,18.90
2018-07-21T05:59:32.383Z,19.10
2018-07-21T06:02:04.983Z,19.20
2018-07-21T06:04:38.686Z,19.40
2018-07-21T06:07:07.843Z,19.50
2018-07-21T06:09:37.635Z,19.60
2018-07-21T06:12:07.590Z,19.70
2018-07-21T06:14:36.260Z,19.80
2018-07-21T06:17:05.453Z,19.90
2018-07-21T06:19:47.670Z,20.10
2018-07-21T06:22:16.283Z,20.20
2018-07-21T06:24:52.761Z,20.20
2018-07-21T06:27:22.031Z,20.30
2018-07-21T06:29:50.358Z,20.30
2018-07-21T06:32:19.545Z,20.60
2018-07-21T06:35:07.813Z,20.60
2018-07-21T06:37:47.903Z,20.70
2018-07-21T06:40:17.017Z,20.80
2018-07-21T06:42:51.690Z,20.90
2018-07-21T06:45:26.945Z,21.10
2018-07-21T06:47:55.251Z,21.20
2018-07-21T06:50:24.274Z,21.20
2018-07-21T06:52:56.284Z,21.30
2018-07-21T06:55:30.284Z,21.40
2018-07-21T06:58:04.438Z,21.50
2018-07-21T07:00:40.176Z,21.60
2018-07-21T07:03:20.454Z,21.70
2018-07-21T07:05:49.145Z,21.80
2018-07-21T07:08:17.972Z,21.80
2018-07-21T07:10:46.775Z,22.00
2018-07-21T07:13:16.848Z,22.20
2018-07-21T07:15:45.910Z,22.00
2018-07-21T07:18:14.674Z,21.80
2018-07-21T07:20:43.470Z,21.70
2018-07-21T07:23:12.403Z,21.60
2018-07-21T07:25:41.524Z,21.60
2018-07-21T07:28:10.680Z,21.70
2018-07-21T07:30:49.088Z,21.80
2018-07-21T07:33:18.079Z,21.90
2018-07-21T07:35:46.894Z,22.10
2018-07-21T07:38:16.012Z,22.30
2018-07-21T07:40:44.825Z,22.40
2018-07-21T07:43:13.754Z,22.80
2018-07-21T07:45:42.703Z,23.10
2018-07-21T07:48:11.519Z,23.40
2018-07-21T07:50:40.310Z,23.20
2018-07-21T07:53:10.214Z,23.60
2018-07-21T07:55:39.421Z,23.70
2018-07-21T07:58:08.130Z,23.90
2018-07-21T08:00:37.026Z,24.00
2018-07-21T08:03:05.809Z,24.10
2018-07-21T08:05:37.778Z,23.90
2018-07-21T08:08:07.596Z,24.20
2018-07-21T08:10:36.214Z,24.40
2018-07-21T08:13:08.011Z,24.60
2018-07-21T08:15:44.349Z,24.70
2018-07-21T08:18:12.783Z,24.70
2018-07-21T08:20:42.031Z,24.60
2018-07-21T08:23:16.119Z,25.00
2018-07-21T08:25:45.275Z,25.10
2018-07-21T08:28:17.305Z,24.90
2018-07-21T08:30:49.250Z,24.90
2018-07-21T08:33:18.260Z,25.40
2018-07-21T08:35:47.566Z,25.60
2018-07-21T08:38:16.448Z,25.90
2018-07-21T08:40:48.398Z,25.70
2018-07-21T08:43:17.236Z,25.50
2018-07-21T08:45:53.735Z,25.90
2018-07-21T08:48:22.954Z,26.30
2018-07-21T08:50:52.303Z,26.40
2018-07-21T08:53:21.555Z,26.50
2018-07-21T08:55:50.345Z,26.70
2018-07-21T08:58:24.632Z,27.10
2018-07-21T09:00:52.955Z,26.90
2018-07-21T09:03:22.437Z,27.10
2018-07-21T09:05:54.114Z,26.90
2018-07-21T09:08:28.435Z,27.30
2018-07-21T09:10:57.984Z,27.20
2018-07-21T09:13:32.345Z,27.30
2018-07-21T09:18:32.411Z,27.70
2018-07-21T09:21:02.437Z,28.00
2018-07-21T09:23:31.382Z,28.30
2018-07-21T09:26:00.314Z,28.20
2018-07-21T09:28:40.616Z,28.10
2018-07-21T09:36:15.409Z,28.50
2018-07-21T09:38:56.658Z,28.20
2018-07-21T09:41:31.051Z,28.10
2018-07-21T09:43:59.478Z,28.40
2018-07-21T09:46:37.354Z,28.30
2018-07-21T09:49:08.788Z,28.30
2018-07-21T09:51:41.007Z,28.40
2018-07-21T09:54:17.631Z,28.80
2018-07-21T09:56:46.973Z,29.20
2018-07-21T09:59:15.518Z,29.10
2018-07-21T10:01:45.427Z,29.10
2018-07-21T10:04:20.660Z,29.50
2018-07-21T10:06:54.659Z,29.40
2018-07-21T10:09:23.057Z,29.40
2018-07-21T10:11:53.104Z,29.60
2018-07-21T10:14:25.131Z,29.80
2018-07-21T10:16:54.595Z,29.70
2018-07-21T10:19:23.053Z,30.00
2018-07-21T10:21:52.284Z,29.70
2018-07-21T10:24:26.165Z,30.20
2018-07-21T10:27:01.177Z,30.50
2018-07-21T10:29:30.309Z,30.30
2018-07-21T10:32:10.715Z,30.40
2018-07-21T10:34:45.005Z,30.20
2018-07-21T10:37:19.279Z,30.70
2018-07-21T10:39:57.276Z,30.50
2018-07-21T10:42:25.944Z,30.80
2018-07-21T10:44:58.462Z,30.20
2018-07-21T10:47:28.509Z,30.60
2018-07-21T10:50:00.603Z,30.70
2018-07-21T10:52:38.946Z,30.20
2018-07-21T10:55:08.444Z,30.60
2018-07-21T10:57:42.623Z,30.60
2018-07-21T11:00:11.824Z,30.60
2018-07-21T11:02:41.531Z,30.90
2018-07-21T11:05:10.278Z,31.00
2018-07-21T11:07:46.328Z,30.70
2018-07-21T11:10:15.940Z,31.10
2018-07-21T11:12:45.582Z,31.40
2018-07-21T11:15:14.770Z,31.50
2018-07-21T11:17:46.698Z,31.40
2018-07-21T11:20:16.843Z,31.10
2018-07-21T11:22:45.721Z,31.50
2018-07-21T11:25:15.953Z,31.70
2018-07-21T11:27:44.638Z,32.00
2018-07-21T11:30:15.205Z,31.70
2018-07-21T11:32:43.839Z,31.90
2018-07-21T11:35:15.976Z,31.90
2018-07-21T11:37:44.598Z,31.90
2018-07-21T11:40:13.673Z,32.10
2018-07-21T11:42:42.621Z,32.10
2018-07-21T11:45:12.558Z,32.30
2018-07-21T11:47:41.284Z,32.20
2018-07-21T11:50:13.464Z,32.00
2018-07-21T11:52:42.457Z,31.90
2018-07-21T11:55:12.471Z,32.20
2018-07-21T11:57:41.517Z,32.10
2018-07-21T12:00:10.816Z,32.00
2018-07-21T12:02:40.017Z,32.10
2018-07-21T12:05:11.693Z,32.10
2018-07-21T12:07:40.709Z,32.30
2018-07-21T12:10:12.448Z,32.20
2018-07-21T12:12:41.136Z,32.20
2018-07-21T12:15:10.065Z,32.10
2018-07-21T12:17:39.954Z,32.70
2018-07-21T12:20:08.756Z,32.70
2018-07-21T12:22:37.685Z,32.60
2018-07-21T12:25:06.493Z,32.90
2018-07-21T12:27:35.342Z,32.90
2018-07-21T12:30:04.648Z,32.80
2018-07-21T12:32:34.108Z,32.90
2018-07-21T12:35:02.993Z,32.40
2018-07-21T12:37:31.846Z,32.20
2018-07-21T12:40:00.953Z,32.30
2018-07-21T12:42:29.739Z,32.10
2018-07-21T12:45:01.769Z,32.20
2018-07-21T12:47:30.476Z,32.40
2018-07-21T12:49:59.287Z,33.00
2018-07-21T12:52:28.348Z,32.90
2018-07-21T12:54:58.012Z,32.90
2018-07-21T12:57:27.408Z,32.80
2018-07-21T12:59:56.626Z,33.00
2018-07-21T13:02:25.764Z,32.80
2018-07-21T13:04:54.664Z,32.80
2018-07-21T13:07:23.980Z,32.90
2018-07-21T13:09:52.730Z,32.90
2018-07-21T13:12:21.547Z,33.00
2018-07-21T13:14:50.536Z,33.60
2018-07-21T13:17:19.349Z,33.60
2018-07-21T13:19:48.369Z,33.30
2018-07-21T13:22:17.333Z,33.60
2018-07-21T13:24:45.929Z,33.20
2018-07-21T13:27:14.911Z,33.20
2018-07-21T13:29:43.822Z,33.10
2018-07-21T13:32:12.700Z,33.40
2018-07-21T13:34:44.734Z,33.80
2018-07-21T13:37:13.346Z,33.70
2018-07-21T13:39:42.089Z,33.70
2018-07-21T13:42:11.185Z,33.30
2018-07-21T13:44:40.027Z,33.50
2018-07-21T13:47:08.904Z,33.50
2018-07-21T13:49:37.669Z,33.30
2018-07-21T13:52:06.899Z,33.30
2018-07-21T13:54:35.900Z,33.50
2018-07-21T13:57:04.571Z,33.30
2018-07-21T13:59:33.552Z,33.60
2018-07-21T14:02:02.363Z,33.70
2018-07-21T14:04:31.435Z,33.50
2018-07-21T14:06:59.825Z,33.10
2018-07-21T14:09:28.485Z,33.30
2018-07-21T14:11:57.651Z,33.10
2018-07-21T14:14:26.420Z,32.90
2018-07-21T14:16:55.442Z,33.20
2018-07-21T14:19:24.384Z,33.50
2018-07-21T14:21:53.900Z,33.20
2018-07-21T14:24:22.432Z,33.30
2018-07-21T14:26:51.340Z,33.10
2018-07-21T14:29:20.215Z,33.10
2018-07-21T14:34:17.809Z,33.00
2018-07-21T14:36:46.616Z,32.90
2018-07-21T14:39:15.506Z,33.20
2018-07-21T14:41:44.395Z,33.00
2018-07-21T14:44:13.312Z,33.10
2018-07-21T14:46:42.292Z,33.10
2018-07-21T14:49:11.357Z,32.70
2018-07-21T14:51:40.350Z,32.00
2018-07-21T14:54:09.078Z,32.30
2018-07-21T14:56:38.143Z,32.20
2018-07-21T15:01:36.859Z,32.40
2018-07-21T15:04:05.601Z,31.90
2018-07-21T15:09:07.542Z,31.30
2018-07-21T15:11:36.236Z,31.20
2018-07-21T15:14:05.028Z,31.40
2018-07-21T15:16:33.789Z,31.80
2018-07-21T15:21:30.452Z,31.50
2018-07-21T15:23:59.540Z,31.80
2018-07-21T15:26:29.542Z,31.40
2018-07-21T15:28:58.598Z,31.70
2018-07-21T15:31:28.666Z,31.80
2018-07-21T15:34:00.720Z,31.90
2018-07-21T15:36:29.677Z,31.40
2018-07-21T15:38:58.348Z,31.50
2018-07-21T15:41:27.335Z,31.50
2018-07-21T15:43:56.013Z,31.60
2018-07-21T15:46:24.810Z,31.10
2018-07-21T15:48:54.721Z,30.30
2018-07-21T15:51:23.708Z,30.00
2018-07-21T15:53:52.584Z,30.20
2018-07-21T15:56:21.404Z,30.60
2018-07-21T15:58:50.487Z,30.20
2018-07-21T16:01:19.283Z,29.90
2018-07-21T16:03:48.976Z,29.70
2018-07-21T16:06:18.252Z,29.20
2018-07-21T16:08:47.434Z,29.00
2018-07-21T16:11:16.539Z,29.00
2018-07-21T16:13:45.321Z,29.10
2018-07-21T16:16:14.313Z,29.20
2018-07-21T16:18:43.117Z,29.10
2018-07-21T16:21:12.021Z,29.70
2018-07-21T16:23:41.108Z,29.60
2018-07-21T16:26:10.077Z,29.10
2018-07-21T16:28:38.778Z,28.60
2018-07-21T16:31:07.621Z,28.50
2018-07-21T16:33:36.696Z,28.20
2018-07-21T16:36:06.166Z,28.10
2018-07-21T16:38:34.642Z,28.40
2018-07-21T16:41:03.423Z,28.70
2018-07-21T16:43:32.202Z,28.60
2018-07-21T16:46:01.012Z,28.20
2018-07-21T16:48:29.725Z,28.10
2018-07-21T16:50:58.823Z,28.40
2018-07-21T16:53:27.898Z,28.20
2018-07-21T16:55:57.160Z,28.20
2018-07-21T16:58:25.756Z,28.20
2018-07-21T17:00:54.885Z,28.50
2018-07-21T17:03:23.769Z,27.90
2018-07-21T17:05:52.735Z,27.80
2018-07-21T17:08:21.310Z,27.90
2018-07-21T17:10:50.385Z,28.10
2018-07-21T17:13:19.052Z,28.00
2018-07-21T17:15:47.841Z,27.60
2018-07-21T17:18:16.941Z,27.70
2018-07-21T17:23:14.576Z,26.90
2018-07-21T17:25:43.294Z,26.80
2018-07-21T17:28:12.193Z,26.90
2018-07-21T17:30:42.189Z,27.40
2018-07-21T17:33:10.790Z,27.40
2018-07-21T17:35:40.607Z,27.00
2018-07-21T17:38:09.477Z,26.20
2018-07-21T17:40:38.629Z,26.00
2018-07-21T17:43:07.484Z,25.90
2018-07-21T17:45:36.864Z,25.80
2018-07-21T17:48:06.161Z,26.00
2018-07-21T17:50:34.770Z,26.00
2018-07-21T17:53:03.793Z,25.70
2018-07-21T17:55:32.687Z,25.70
2018-07-21T17:58:01.706Z,25.50
2018-07-21T18:00:30.564Z,25.30
2018-07-21T18:02:59.438Z,25.10
2018-07-21T18:05:29.251Z,24.70
2018-07-21T18:07:57.871Z,24.60
2018-07-21T18:10:26.965Z,24.40
2018-07-21T18:12:55.326Z,24.40
2018-07-21T18:15:24.441Z,24.30
2018-07-21T18:17:53.380Z,24.40
2018-07-21T18:20:22.457Z,24.30
2018-07-21T18:22:51.339Z,24.10
2018-07-21T18:25:20.408Z,24.00
2018-07-21T18:27:51.459Z,23.70
2018-07-21T18:30:20.033Z,23.60
2018-07-21T18:35:18.199Z,23.40
2018-07-21T18:37:46.804Z,23.30
2018-07-21T18:40:20.516Z,23.30
2018-07-21T18:42:49.920Z,23.20
2018-07-21T18:45:19.130Z,23.30
2018-07-21T18:47:47.800Z,23.00
2018-07-21T18:50:16.854Z,23.00
2018-07-21T18:52:45.917Z,22.90
2018-07-21T18:55:14.771Z,22.80
2018-07-21T18:57:43.650Z,22.70
2018-07-21T19:00:12.906Z,22.60
2018-07-21T19:02:41.807Z,22.50
2018-07-21T19:05:11.736Z,22.50
2018-07-21T19:07:40.542Z,22.40
2018-07-21T19:10:09.360Z,22.20
2018-07-21T19:12:52.835Z,22.20
2018-07-21T19:15:27.332Z,22.00
2018-07-21T19:17:55.897Z,22.10
2018-07-21T19:20:30.162Z,22.20
2018-07-21T19:23:01.719Z,22.10
2018-07-21T19:25:36.804Z,22.10
2018-07-21T19:28:05.624Z,22.00
2018-07-21T19:30:41.204Z,21.70
2018-07-21T19:33:10.860Z,21.70
2018-07-21T19:35:40.648Z,21.70
2018-07-21T19:38:11.500Z,21.60
2018-07-21T19:40:39.980Z,21.60
2018-07-21T19:43:08.672Z,21.60
2018-07-21T19:45:37.787Z,21.70
2018-07-21T19:48:06.393Z,21.70
2018-07-21T19:50:35.507Z,21.70
2018-07-21T19:53:04.352Z,21.50
2018-07-21T19:55:33.301Z,21.40
2018-07-21T19:58:02.377Z,21.20
2018-07-21T20:00:31.029Z,21.20
2018-07-21T20:02:59.928Z,21.10
2018-07-21T20:05:28.996Z,21.10
2018-07-21T20:07:57.392Z,21.00
2018-07-21T20:10:27.298Z,20.90
2018-07-21T20:12:56.485Z,20.80
2018-07-21T20:15:25.344Z,20.80
2018-07-21T20:17:56.005Z,20.70
2018-07-21T20:20:25.342Z,20.70
2018-07-21T20:22:54.011Z,20.50
2018-07-21T20:25:27.298Z,20.40
2018-07-21T20:27:56.506Z,20.30
2018-07-21T20:30:25.408Z,20.30
2018-07-21T20:32:54.283Z,20.30
2018-07-21T20:35:23.100Z,20.20
2018-07-21T20:37:52.027Z,20.10
2018-07-21T20:40:20.796Z,20.20
2018-07-21T20:42:49.555Z,20.10
2018-07-21T20:45:18.316Z,20.10
2018-07-21T20:47:47.073Z,20.00
2018-07-21T20:50:18.986Z,19.90
2018-07-21T20:52:47.846Z,19.90
2018-07-21T20:55:16.976Z,19.90
2018-07-21T20:57:45.631Z,19.80
2018-07-21T21:00:14.496Z,19.80
2018-07-21T21:02:44.099Z,19.80
2018-07-21T21:05:12.909Z,19.70
2018-07-21T21:07:41.908Z,19.70
2018-07-21T21:10:11.169Z,19.50
2018-07-21T21:12:39.725Z,19.50
2018-07-21T21:15:08.961Z,19.40
2018-07-21T21:20:29.356Z,19.40
2018-07-21T21:22:58.237Z,19.40
2018-07-21T21:25:27.407Z,19.40
2018-07-21T21:27:56.486Z,19.30
2018-07-21T21:30:26.330Z,19.30
2018-07-21T21:32:54.911Z,19.20
2018-07-21T21:35:23.932Z,19.20
2018-07-21T21:37:52.652Z,19.20
2018-07-21T21:40:21.527Z,19.10
2018-07-21T21:42:50.315Z,19.00
2018-07-21T21:45:19.313Z,19.00
2018-07-21T21:47:48.476Z,19.00
2018-07-21T21:52:45.484Z,18.90
2018-07-21T21:55:14.192Z,18.90
2018-07-21T21:57:42.857Z,18.90
2018-07-21T22:00:12.790Z,18.70
2018-07-21T22:02:41.680Z,18.70
2018-07-21T22:05:11.212Z,18.80
2018-07-21T22:07:40.465Z,18.70
2018-07-21T22:10:09.379Z,18.70
2018-07-21T22:12:38.226Z,18.70
2018-07-21T22:15:13.028Z,18.60
2018-07-21T22:17:42.399Z,18.60
2018-07-21T22:20:11.181Z,18.60
2018-07-21T22:22:40.074Z,18.50
2018-07-21T22:27:36.752Z,18.50
2018-07-21T22:30:05.630Z,18.40
2018-07-21T22:32:34.569Z,18.40
2018-07-21T22:35:03.437Z,18.30
2018-07-21T22:37:32.893Z,18.30
2018-07-21T22:40:01.936Z,18.30
2018-07-21T22:42:30.830Z,18.30
2018-07-21T22:45:00.001Z,18.20
2018-07-21T22:47:29.018Z,18.20
2018-07-21T22:49:57.489Z,18.10
2018-07-21T22:52:26.184Z,18.10
2018-07-21T22:54:55.436Z,18.10
2018-07-21T22:57:24.067Z,18.00
2018-07-21T22:59:52.759Z,18.00
2018-07-21T23:02:21.729Z,18.00
2018-07-21T23:04:50.516Z,18.00
2018-07-21T23:07:19.432Z,18.00
2018-07-21T23:09:48.309Z,18.00
2018-07-21T23:12:17.194Z,18.00
2018-07-21T23:14:46.211Z,18.00
2018-07-21T23:17:15.058Z,17.90
2018-07-21T23:19:43.706Z,17.90
2018-07-21T23:22:12.770Z,17.90
2018-07-21T23:24:41.863Z,17.90
2018-07-21T23:27:10.751Z,17.80
2018-07-21T23:29:40.460Z,17.80
2018-07-21T23:32:09.333Z,17.80
2018-07-21T23:34:38.532Z,17.80
2018-07-21T23:37:07.187Z,17.80
2018-07-21T23:39:37.083Z,17.70
2018-07-21T23:42:05.958Z,17.70
2018-07-21T23:44:34.745Z,17.60
2018-07-21T23:47:03.737Z,17.70
2018-07-21T23:49:33.464Z,17.60
2018-07-21T23:52:03.377Z,17.60
2018-07-21T23:54:32.122Z,17.60
2018-07-21T23:57:00.797Z,17.60
2018-07-21T23:59:29.625Z,17.60
